sensor_id;sensor_type;location;lat;lon;timestamp;pressure;altitude;pressure_sealevel;temperature;humidity
22000;BME280;11164;48.818;2.322;2022-07-29T00:01:48;100577.63;;;22.56;24.36
22000;BME280;11164;48.818;2.322;2022-07-29T00:04:14;100577.66;;;22.45;24.67
22000;BME280;11164;48.818;2.322;2022-07-29T00:06:40;100567.53;;;22.36;24.55
22000;BME280;11164;48.818;2.322;2022-07-29T00:09:06;100561.75;;;22.37;24.48
22000;BME280;11164;48.818;2.322;2022-07-29T00:11:31;100569.47;;;22.30;24.64
22000;BME280;11164;48.818;2.322;2022-07-29T00:13:58;100557.06;;;22.38;24.76
22000;BME280;11164;48.818;2.322;2022-07-29T00:16:24;100562.56;;;22.43;24.90
22000;BME280;11164;48.818;2.322;2022-07-29T00:18:49;100550.25;;;22.30;24.57
22000;BME280;11164;48.818;2.322;2022-07-29T00:21:14;100551.88;;;22.31;24.64
22000;BME280;11164;48.818;2.322;2022-07-29T00:23:40;100551.59;;;22.27;24.80
22000;BME280;11164;48.818;2.322;2022-07-29T00:26:05;100538.69;;;22.33;24.90
22000;BME280;11164;48.818;2.322;2022-07-29T00:28:31;100546.88;;;22.43;24.68
22000;BME280;11164;48.818;2.322;2022-07-29T00:30:56;100545.78;;;22.44;24.62
22000;BME280;11164;48.818;2.322;2022-07-29T00:33:21;100533.16;;;22.38;24.70
22000;BME280;11164;48.818;2.322;2022-07-29T00:35:48;100532.66;;;22.31;24.64
22000;BME280;11164;48.818;2.322;2022-07-29T00:38:16;100539.81;;;22.27;25.00
22000;BME280;11164;48.818;2.322;2022-07-29T00:40:41;100537.34;;;22.25;25.25
22000;BME280;11164;48.818;2.322;2022-07-29T00:43:07;100531.03;;;22.20;24.87
22000;BME280;11164;48.818;2.322;2022-07-29T00:45:33;100539.28;;;22.20;25.04
22000;BME280;11164;48.818;2.322;2022-07-29T00:47:58;100540.38;;;22.14;25.38
22000;BME280;11164;48.818;2.322;2022-07-29T00:50:24;100536.28;;;22.16;25.31
22000;BME280;11164;48.818;2.322;2022-07-29T00:52:50;100534.63;;;22.10;25.24
22000;BME280;11164;48.818;2.322;2022-07-29T00:55:17;100539.03;;;22.11;25.31
22000;BME280;11164;48.818;2.322;2022-07-29T00:57:44;100534.34;;;22.06;25.54
22000;BME280;11164;48.818;2.322;2022-07-29T01:00:17;100530.50;;;22.07;25.78
22000;BME280;11164;48.818;2.322;2022-07-29T01:02:43;100525.00;;;22.07;25.46
22000;BME280;11164;48.818;2.322;2022-07-29T01:05:10;100523.38;;;22.06;25.66
22000;BME280;11164;48.818;2.322;2022-07-29T01:07:36;100532.72;;;22.00;25.64
22000;BME280;11164;48.818;2.322;2022-07-29T01:10:07;100533.53;;;21.90;25.72
22000;BME280;11164;48.818;2.322;2022-07-29T01:12:35;100540.66;;;21.81;25.82
22000;BME280;11164;48.818;2.322;2022-07-29T01:15:03;100528.88;;;21.75;25.92
22000;BME280;11164;48.818;2.322;2022-07-29T01:17:43;100534.34;;;21.65;26.70
22000;BME280;11164;48.818;2.322;2022-07-29T01:28:52;100537.63;;;21.83;26.45
22000;BME280;11164;48.818;2.322;2022-07-29T01:34:21;100544.53;;;21.80;25.95
22000;BME280;11164;48.818;2.322;2022-07-29T01:36:55;100550.81;;;21.86;26.38
22000;BME280;11164;48.818;2.322;2022-07-29T01:39:34;100545.31;;;21.91;26.35
22000;BME280;11164;48.818;2.322;2022-07-29T01:42:10;100553.28;;;21.87;26.47
22000;BME280;11164;48.818;2.322;2022-07-29T01:45:10;100542.84;;;21.84;27.29
22000;BME280;11164;48.818;2.322;2022-07-29T01:47:41;100549.47;;;21.83;26.26
22000;BME280;11164;48.818;2.322;2022-07-29T01:50:10;100545.59;;;21.74;26.25
22000;BME280;11164;48.818;2.322;2022-07-29T01:52:47;100543.44;;;21.66;26.45
22000;BME280;11164;48.818;2.322;2022-07-29T01:55:16;100542.03;;;21.68;26.30
22000;BME280;11164;48.818;2.322;2022-07-29T01:57:46;100542.31;;;21.72;26.67
22000;BME280;11164;48.818;2.322;2022-07-29T02:00:13;100549.19;;;21.74;26.56
22000;BME280;11164;48.818;2.322;2022-07-29T02:02:41;100546.44;;;21.80;26.39
22000;BME280;11164;48.818;2.322;2022-07-29T02:05:10;100548.06;;;21.65;26.72
22000;BME280;11164;48.818;2.322;2022-07-29T02:07:37;100551.38;;;21.67;26.51
22000;BME280;11164;48.818;2.322;2022-07-29T02:10:06;100549.47;;;21.68;26.63
22000;BME280;11164;48.818;2.322;2022-07-29T02:12:32;100552.22;;;21.78;26.62
22000;BME280;11164;48.818;2.322;2022-07-29T02:15:01;100542.59;;;21.81;26.64
22000;BME280;11164;48.818;2.322;2022-07-29T02:17:31;100540.13;;;21.74;26.57
22000;BME280;11164;48.818;2.322;2022-07-29T02:20:00;100546.72;;;21.73;26.93
22000;BME280;11164;48.818;2.322;2022-07-29T02:22:29;100548.91;;;21.76;26.85
22000;BME280;11164;48.818;2.322;2022-07-29T02:24:57;100552.75;;;21.80;26.76
22000;BME280;11164;48.818;2.322;2022-07-29T02:27:23;100548.34;;;21.74;26.67
22000;BME280;11164;48.818;2.322;2022-07-29T02:29:51;100551.94;;;21.74;26.83
22000;BME280;11164;48.818;2.322;2022-07-29T02:32:17;100547.25;;;21.70;26.72
22000;BME280;11164;48.818;2.322;2022-07-29T02:34:44;100553.03;;;21.68;26.97
22000;BME280;11164;48.818;2.322;2022-07-29T02:37:11;100553.03;;;21.53;27.28
22000;BME280;11164;48.818;2.322;2022-07-29T02:39:39;100558.75;;;21.46;27.23
22000;BME280;11164;48.818;2.322;2022-07-29T02:42:07;100559.63;;;21.47;27.46
22000;BME280;11164;48.818;2.322;2022-07-29T02:44:35;100541.50;;;21.41;27.45
22000;BME280;11164;48.818;2.322;2022-07-29T02:52:29;100559.59;;;21.31;27.85
22000;BME280;11164;48.818;2.322;2022-07-29T02:57:43;100560.41;;;21.32;29.01
22000;BME280;11164;48.818;2.322;2022-07-29T03:00:10;100560.06;;;21.18;27.90
22000;BME280;11164;48.818;2.322;2022-07-29T03:02:39;100557.84;;;21.10;28.24
22000;BME280;11164;48.818;2.322;2022-07-29T03:05:08;100563.59;;;21.03;28.22
22000;BME280;11164;48.818;2.322;2022-07-29T03:07:35;100562.78;;;21.03;28.30
22000;BME280;11164;48.818;2.322;2022-07-29T03:10:03;100566.59;;;20.96;28.33
22000;BME280;11164;48.818;2.322;2022-07-29T03:12:30;100570.41;;;20.90;28.51
22000;BME280;11164;48.818;2.322;2022-07-29T03:14:56;100569.06;;;20.98;28.40
22000;BME280;11164;48.818;2.322;2022-07-29T03:17:23;100572.06;;;20.86;28.74
22000;BME280;11164;48.818;2.322;2022-07-29T03:19:49;100574.22;;;20.84;28.77
22000;BME280;11164;48.818;2.322;2022-07-29T03:22:14;100572.88;;;20.92;28.66
22000;BME280;11164;48.818;2.322;2022-07-29T03:24:40;100571.78;;;20.88;28.79
22000;BME280;11164;48.818;2.322;2022-07-29T03:27:06;100579.72;;;20.89;28.82
22000;BME280;11164;48.818;2.322;2022-07-29T03:29:31;100577.81;;;20.90;28.96
22000;BME280;11164;48.818;2.322;2022-07-29T03:31:57;100576.16;;;20.89;29.01
22000;BME280;11164;48.818;2.322;2022-07-29T03:34:22;100573.13;;;20.80;28.99
22000;BME280;11164;48.818;2.322;2022-07-29T03:36:47;100563.50;;;20.72;29.34
22000;BME280;11164;48.818;2.322;2022-07-29T03:39:20;100572.00;;;20.76;29.15
22000;BME280;11164;48.818;2.322;2022-07-29T03:41:49;100571.72;;;20.72;29.35
22000;BME280;11164;48.818;2.322;2022-07-29T03:44:16;100572.78;;;20.66;29.15
22000;BME280;11164;48.818;2.322;2022-07-29T03:46:43;100572.22;;;20.64;29.29
22000;BME280;11164;48.818;2.322;2022-07-29T03:49:11;100580.16;;;20.60;29.49
22000;BME280;11164;48.818;2.322;2022-07-29T03:51:38;100580.16;;;20.60;29.57
22000;BME280;11164;48.818;2.322;2022-07-29T03:54:04;100577.47;;;20.71;29.59
22000;BME280;11164;48.818;2.322;2022-07-29T03:56:32;100579.66;;;20.69;29.56
22000;BME280;11164;48.818;2.322;2022-07-29T03:59:01;100585.69;;;20.71;29.63
22000;BME280;11164;48.818;2.322;2022-07-29T04:01:27;100574.72;;;20.71;29.65
22000;BME280;11164;48.818;2.322;2022-07-29T04:03:53;100580.44;;;20.64;29.87
22000;BME280;11164;48.818;2.322;2022-07-29T04:06:18;100580.22;;;20.71;29.67
22000;BME280;11164;48.818;2.322;2022-07-29T04:08:44;100584.56;;;20.67;29.89
22000;BME280;11164;48.818;2.322;2022-07-29T04:11:09;100590.03;;;20.67;29.80
22000;BME280;11164;48.818;2.322;2022-07-29T04:13:35;100590.81;;;20.57;30.01
22000;BME280;11164;48.818;2.322;2022-07-29T04:16:00;100586.72;;;20.59;30.01
22000;BME280;11164;48.818;2.322;2022-07-29T04:18:25;100593.59;;;20.62;30.22
22000;BME280;11164;48.818;2.322;2022-07-29T04:20:51;100595.94;;;20.48;30.36
22000;BME280;11164;48.818;2.322;2022-07-29T04:23:16;100579.41;;;20.28;30.55
22000;BME280;11164;48.818;2.322;2022-07-29T04:25:42;100587.09;;;20.31;30.50
22000;BME280;11164;48.818;2.322;2022-07-29T04:28:09;100601.41;;;20.43;30.60
22000;BME280;11164;48.818;2.322;2022-07-29T04:30:35;100590.28;;;20.55;30.23
22000;BME280;11164;48.818;2.322;2022-07-29T04:33:02;100585.34;;;20.57;30.21
22000;BME280;11164;48.818;2.322;2022-07-29T04:35:29;100595.22;;;20.63;30.47
22000;BME280;11164;48.818;2.322;2022-07-29T04:37:55;100598.25;;;20.67;30.30
22000;BME280;11164;48.818;2.322;2022-07-29T04:40:20;100605.91;;;20.65;30.53
22000;BME280;11164;48.818;2.322;2022-07-29T04:42:46;100577.38;;;20.55;30.39
22000;BME280;11164;48.818;2.322;2022-07-29T04:45:11;100610.53;;;20.59;30.49
22000;BME280;11164;48.818;2.322;2022-07-29T04:47:36;100607.16;;;20.47;30.73
22000;BME280;11164;48.818;2.322;2022-07-29T04:50:02;100601.44;;;20.48;30.76
22000;BME280;11164;48.818;2.322;2022-07-29T04:52:28;100607.56;;;20.60;30.43
22000;BME280;11164;48.818;2.322;2022-07-29T04:54:53;100602.94;;;20.71;30.47
22000;BME280;11164;48.818;2.322;2022-07-29T04:57:18;100604.53;;;20.62;30.71
22000;BME280;11164;48.818;2.322;2022-07-29T04:59:43;100602.47;;;20.85;30.48
22000;BME280;11164;48.818;2.322;2022-07-29T05:02:09;100601.13;;;20.97;30.17
22000;BME280;11164;48.818;2.322;2022-07-29T05:04:34;100600.66;;;21.21;29.88
22000;BME280;11164;48.818;2.322;2022-07-29T05:06:59;100596.59;;;21.34;29.88
22000;BME280;11164;48.818;2.322;2022-07-29T05:09:25;100599.09;;;21.51;29.80
22000;BME280;11164;48.818;2.322;2022-07-29T05:11:50;100602.41;;;21.68;29.66
22000;BME280;11164;48.818;2.322;2022-07-29T05:14:15;100595.28;;;21.78;29.66
22000;BME280;11164;48.818;2.322;2022-07-29T05:16:41;100597.47;;;21.91;29.53
22000;BME280;11164;48.818;2.322;2022-07-29T05:19:07;100604.06;;;21.90;29.60
22000;BME280;11164;48.818;2.322;2022-07-29T05:21:32;100604.63;;;22.12;29.19
22000;BME280;11164;48.818;2.322;2022-07-29T05:23:59;100589.00;;;22.03;29.24
22000;BME280;11164;48.818;2.322;2022-07-29T05:26:25;100605.75;;;22.06;29.43
22000;BME280;11164;48.818;2.322;2022-07-29T05:28:51;100600.50;;;22.20;29.26
22000;BME280;11164;48.818;2.322;2022-07-29T05:31:16;100596.38;;;22.18;28.96
22000;BME280;11164;48.818;2.322;2022-07-29T05:33:42;100606.56;;;21.97;29.51
22000;BME280;11164;48.818;2.322;2022-07-29T05:36:08;100601.59;;;21.73;29.67
22000;BME280;11164;48.818;2.322;2022-07-29T05:38:36;100611.19;;;21.81;29.62
22000;BME280;11164;48.818;2.322;2022-07-29T05:41:02;100609.53;;;21.90;29.49
22000;BME280;11164;48.818;2.322;2022-07-29T05:43:28;100614.50;;;21.93;29.36
22000;BME280;11164;48.818;2.322;2022-07-29T05:45:53;100610.13;;;21.82;29.45
22000;BME280;11164;48.818;2.322;2022-07-29T05:48:19;100619.44;;;21.86;29.31
22000;BME280;11164;48.818;2.322;2022-07-29T05:50:44;100612.00;;;21.76;29.56
22000;BME280;11164;48.818;2.322;2022-07-29T05:53:09;100624.66;;;21.77;29.57
22000;BME280;11164;48.818;2.322;2022-07-29T05:55:35;100626.84;;;21.85;29.44
22000;BME280;11164;48.818;2.322;2022-07-29T05:58:00;100622.19;;;21.91;29.19
22000;BME280;11164;48.818;2.322;2022-07-29T06:00:25;100630.16;;;21.87;29.37
22000;BME280;11164;48.818;2.322;2022-07-29T06:02:51;100625.44;;;21.67;29.44
22000;BME280;11164;48.818;2.322;2022-07-29T06:05:16;100630.97;;;21.83;29.38
22000;BME280;11164;48.818;2.322;2022-07-29T06:07:43;100640.84;;;21.79;29.27
22000;BME280;11164;48.818;2.322;2022-07-29T06:10:09;100635.91;;;21.81;29.19
22000;BME280;11164;48.818;2.322;2022-07-29T06:12:34;100645.78;;;21.66;29.37
22000;BME280;11164;48.818;2.322;2022-07-29T06:15:00;100646.06;;;21.75;29.37
22000;BME280;11164;48.818;2.322;2022-07-29T06:17:25;100647.69;;;21.76;29.29
22000;BME280;11164;48.818;2.322;2022-07-29T06:19:50;100653.47;;;21.80;29.08
22000;BME280;11164;48.818;2.322;2022-07-29T06:22:16;100640.59;;;21.85;28.96
22000;BME280;11164;48.818;2.322;2022-07-29T06:24:42;100648.59;;;21.97;29.00
22000;BME280;11164;48.818;2.322;2022-07-29T06:27:12;100647.75;;;22.17;28.68
22000;BME280;11164;48.818;2.322;2022-07-29T06:29:37;100640.56;;;22.37;28.62
22000;BME280;11164;48.818;2.322;2022-07-29T06:32:03;100647.72;;;22.33;28.63
22000;BME280;11164;48.818;2.322;2022-07-29T06:34:29;100643.06;;;22.33;28.42
22000;BME280;11164;48.818;2.322;2022-07-29T06:36:54;100643.06;;;22.33;28.42
22000;BME280;11164;48.818;2.322;2022-07-29T06:39:20;100644.97;;;22.43;28.41
22000;BME280;11164;48.818;2.322;2022-07-29T06:41:49;100651.78;;;22.61;28.16
22000;BME280;11164;48.818;2.322;2022-07-29T06:44:16;100643.03;;;22.64;28.21
22000;BME280;11164;48.818;2.322;2022-07-29T06:46:41;100652.59;;;22.77;28.09
22000;BME280;11164;48.818;2.322;2022-07-29T06:49:08;100655.06;;;22.78;28.20
22000;BME280;11164;48.818;2.322;2022-07-29T06:51:34;100657.69;;;23.14;27.97
22000;BME280;11164;48.818;2.322;2022-07-29T06:53:59;100649.75;;;23.08;28.18
22000;BME280;11164;48.818;2.322;2022-07-29T06:56:26;100659.88;;;23.22;27.63
22000;BME280;11164;48.818;2.322;2022-07-29T06:58:51;100657.13;;;23.22;27.70
22000;BME280;11164;48.818;2.322;2022-07-29T07:01:17;100668.66;;;23.30;27.75
22000;BME280;11164;48.818;2.322;2022-07-29T07:03:42;100666.47;;;23.16;28.10
22000;BME280;11164;48.818;2.322;2022-07-29T07:06:08;100671.41;;;23.24;27.60
22000;BME280;11164;48.818;2.322;2022-07-29T07:08:33;100667.22;;;23.37;27.48
22000;BME280;11164;48.818;2.322;2022-07-29T07:10:58;100668.59;;;23.40;27.80
22000;BME280;11164;48.818;2.322;2022-07-29T07:13:24;100667.94;;;23.58;27.27
22000;BME280;11164;48.818;2.322;2022-07-29T07:15:50;100667.69;;;23.99;26.79
22000;BME280;11164;48.818;2.322;2022-07-29T07:18:17;100672.94;;;24.30;26.46
22000;BME280;11164;48.818;2.322;2022-07-29T07:20:42;100673.91;;;24.45;26.81
22000;BME280;11164;48.818;2.322;2022-07-29T07:23:08;100675.16;;;24.63;26.15
22000;BME280;11164;48.818;2.322;2022-07-29T07:25:34;100678.84;;;24.77;25.99
22000;BME280;11164;48.818;2.322;2022-07-29T07:27:59;100669.56;;;24.92;26.11
22000;BME280;11164;48.818;2.322;2022-07-29T07:30:25;100676.19;;;25.15;25.62
22000;BME280;11164;48.818;2.322;2022-07-29T07:32:50;100675.41;;;25.09;25.62
22000;BME280;11164;48.818;2.322;2022-07-29T07:35:16;100669.22;;;25.42;25.32
22000;BME280;11164;48.818;2.322;2022-07-29T07:37:41;100684.47;;;25.58;25.32
22000;BME280;11164;48.818;2.322;2022-07-29T07:40:08;100665.50;;;25.33;25.71
22000;BME280;11164;48.818;2.322;2022-07-29T07:42:34;100689.00;;;25.68;25.18
22000;BME280;11164;48.818;2.322;2022-07-29T07:45:00;100687.63;;;25.90;24.88
22000;BME280;11164;48.818;2.322;2022-07-29T07:47:25;100679.31;;;25.71;25.04
22000;BME280;11164;48.818;2.322;2022-07-29T07:49:52;100681.97;;;25.81;24.95
22000;BME280;11164;48.818;2.322;2022-07-29T07:52:20;100685.75;;;25.85;25.10
22000;BME280;11164;48.818;2.322;2022-07-29T07:54:46;100686.09;;;25.40;25.41
22000;BME280;11164;48.818;2.322;2022-07-29T07:57:12;100695.03;;;25.51;25.34
22000;BME280;11164;48.818;2.322;2022-07-29T07:59:38;100695.97;;;25.65;25.29
22000;BME280;11164;48.818;2.322;2022-07-29T08:02:04;100691.47;;;26.08;24.61
22000;BME280;11164;48.818;2.322;2022-07-29T08:04:29;100682.53;;;26.30;24.65
22000;BME280;11164;48.818;2.322;2022-07-29T08:06:56;100682.84;;;26.28;24.48
22000;BME280;11164;48.818;2.322;2022-07-29T08:09:23;100693.28;;;26.31;24.59
22000;BME280;11164;48.818;2.322;2022-07-29T08:11:49;100678.38;;;26.13;24.68
22000;BME280;11164;48.818;2.322;2022-07-29T08:14:15;100696.19;;;26.07;24.63
22000;BME280;11164;48.818;2.322;2022-07-29T08:16:40;100682.41;;;26.21;24.49
22000;BME280;11164;48.818;2.322;2022-07-29T08:19:07;100692.31;;;26.41;23.82
22000;BME280;11164;48.818;2.322;2022-07-29T08:21:32;100692.25;;;26.60;23.79
22000;BME280;11164;48.818;2.322;2022-07-29T08:23:58;100691.81;;;26.53;23.62
22000;BME280;11164;48.818;2.322;2022-07-29T08:26:42;100691.63;;;26.63;23.54
22000;BME280;11164;48.818;2.322;2022-07-29T08:29:09;100686.53;;;26.84;23.47
22000;BME280;11164;48.818;2.322;2022-07-29T08:31:36;100691.09;;;26.94;23.08
22000;BME280;11164;48.818;2.322;2022-07-29T08:34:02;100697.44;;;26.94;22.79
22000;BME280;11164;48.818;2.322;2022-07-29T08:36:28;100692.16;;;26.65;23.25
22000;BME280;11164;48.818;2.322;2022-07-29T08:38:54;100694.72;;;26.75;22.96
22000;BME280;11164;48.818;2.322;2022-07-29T08:41:19;100682.38;;;27.01;22.80
22000;BME280;11164;48.818;2.322;2022-07-29T08:43:46;100695.47;;;27.23;22.74
22000;BME280;11164;48.818;2.322;2022-07-29T08:46:11;100687.38;;;26.98;22.81
22000;BME280;11164;48.818;2.322;2022-07-29T08:48:38;100685.03;;;27.06;22.40
22000;BME280;11164;48.818;2.322;2022-07-29T08:51:05;100690.81;;;27.60;22.11
22000;BME280;11164;48.818;2.322;2022-07-29T08:53:31;100693.72;;;28.14;21.75
22000;BME280;11164;48.818;2.322;2022-07-29T08:55:57;100696.19;;;27.79;22.14
22000;BME280;11164;48.818;2.322;2022-07-29T08:58:23;100693.06;;;27.44;22.32
22000;BME280;11164;48.818;2.322;2022-07-29T09:00:52;100688.91;;;27.19;22.25
22000;BME280;11164;48.818;2.322;2022-07-29T09:03:19;100682.66;;;27.13;22.63
22000;BME280;11164;48.818;2.322;2022-07-29T09:05:46;100687.47;;;26.93;22.40
22000;BME280;11164;48.818;2.322;2022-07-29T09:08:13;100688.44;;;26.42;22.81
22000;BME280;11164;48.818;2.322;2022-07-29T09:10:39;100689.69;;;26.31;22.90
22000;BME280;11164;48.818;2.322;2022-07-29T09:13:04;100688.72;;;26.40;22.96
22000;BME280;11164;48.818;2.322;2022-07-29T09:15:30;100688.94;;;26.44;22.49
22000;BME280;11164;48.818;2.322;2022-07-29T09:17:55;100693.91;;;26.61;22.28
22000;BME280;11164;48.818;2.322;2022-07-29T09:20:23;100686.81;;;26.69;22.41
22000;BME280;11164;48.818;2.322;2022-07-29T09:22:50;100684.50;;;27.17;21.89
22000;BME280;11164;48.818;2.322;2022-07-29T09:25:38;100680.66;;;27.55;21.03
22000;BME280;11164;48.818;2.322;2022-07-29T09:28:07;100680.25;;;27.84;21.09
22000;BME280;11164;48.818;2.322;2022-07-29T09:30:35;100679.66;;;27.87;21.32
22000;BME280;11164;48.818;2.322;2022-07-29T09:33:03;100681.81;;;27.99;21.15
22000;BME280;11164;48.818;2.322;2022-07-29T09:35:30;100669.94;;;28.21;20.76
22000;BME280;11164;48.818;2.322;2022-07-29T09:37:56;100680.88;;;28.04;21.41
22000;BME280;11164;48.818;2.322;2022-07-29T09:40:25;100683.41;;;27.91;21.11
22000;BME280;11164;48.818;2.322;2022-07-29T09:42:51;100682.59;;;27.91;21.07
22000;BME280;11164;48.818;2.322;2022-07-29T09:45:31;100677.50;;;27.84;20.77
22000;BME280;11164;48.818;2.322;2022-07-29T09:47:58;100684.16;;;27.83;21.12
22000;BME280;11164;48.818;2.322;2022-07-29T09:50:38;100691.53;;;27.88;20.89
22000;BME280;11164;48.818;2.322;2022-07-29T09:53:05;100686.53;;;28.13;21.19
22000;BME280;11164;48.818;2.322;2022-07-29T09:55:30;100687.13;;;27.87;21.53
22000;BME280;11164;48.818;2.322;2022-07-29T09:58:15;100681.31;;;27.75;20.32
22000;BME280;11164;48.818;2.322;2022-07-29T10:00:42;100686.31;;;27.86;21.31
22000;BME280;11164;48.818;2.322;2022-07-29T10:03:07;100682.63;;;28.14;20.90
22000;BME280;11164;48.818;2.322;2022-07-29T10:05:33;100687.53;;;28.17;20.94
22000;BME280;11164;48.818;2.322;2022-07-29T10:07:58;100681.19;;;28.02;21.15
22000;BME280;11164;48.818;2.322;2022-07-29T10:10:26;100683.13;;;28.16;20.60
22000;BME280;11164;48.818;2.322;2022-07-29T10:12:54;100686.91;;;28.20;20.81
22000;BME280;11164;48.818;2.322;2022-07-29T10:15:22;100685.25;;;27.96;20.92
22000;BME280;11164;48.818;2.322;2022-07-29T10:17:49;100687.50;;;27.94;20.79
22000;BME280;11164;48.818;2.322;2022-07-29T10:20:15;100693.06;;;28.17;20.96
22000;BME280;11164;48.818;2.322;2022-07-29T10:22:40;100684.69;;;28.08;20.96
22000;BME280;11164;48.818;2.322;2022-07-29T10:25:07;100681.44;;;28.37;20.35
22000;BME280;11164;48.818;2.322;2022-07-29T10:27:34;100692.41;;;28.42;20.21
22000;BME280;11164;48.818;2.322;2022-07-29T10:30:00;100694.22;;;28.16;20.87
22000;BME280;11164;48.818;2.322;2022-07-29T10:32:43;100686.38;;;27.95;20.74
22000;BME280;11164;48.818;2.322;2022-07-29T10:44:06;100688.66;;;28.16;20.54
22000;BME280;11164;48.818;2.322;2022-07-29T10:46:38;100683.06;;;28.07;20.51
22000;BME280;11164;48.818;2.322;2022-07-29T10:49:26;100688.53;;;27.98;20.41
22000;BME280;11164;48.818;2.322;2022-07-29T10:54:45;100690.66;;;28.01;21.04
22000;BME280;11164;48.818;2.322;2022-07-29T10:57:16;100688.34;;;27.95;20.85
22000;BME280;11164;48.818;2.322;2022-07-29T10:59:43;100697.94;;;28.11;20.71
22000;BME280;11164;48.818;2.322;2022-07-29T11:07:23;100691.47;;;28.02;20.57
22000;BME280;11164;48.818;2.322;2022-07-29T11:15:18;100686.44;;;28.26;20.25
22000;BME280;11164;48.818;2.322;2022-07-29T11:18:06;100690.00;;;28.50;19.87
22000;BME280;11164;48.818;2.322;2022-07-29T11:20:33;100685.94;;;28.78;19.84
22000;BME280;11164;48.818;2.322;2022-07-29T11:22:59;100685.91;;;28.70;20.25
22000;BME280;11164;48.818;2.322;2022-07-29T11:25:25;100689.50;;;28.79;20.38
22000;BME280;11164;48.818;2.322;2022-07-29T11:27:52;100696.94;;;28.61;20.55
22000;BME280;11164;48.818;2.322;2022-07-29T11:30:19;100694.38;;;28.73;20.35
22000;BME280;11164;48.818;2.322;2022-07-29T11:32:45;100681.03;;;28.21;20.47
22000;BME280;11164;48.818;2.322;2022-07-29T11:37:37;100684.81;;;28.57;20.15
22000;BME280;11164;48.818;2.322;2022-07-29T11:45:14;100688.56;;;28.52;20.59
22000;BME280;11164;48.818;2.322;2022-07-29T11:47:52;100693.50;;;28.33;19.82
22000;BME280;11164;48.818;2.322;2022-07-29T11:50:35;100695.09;;;28.25;20.04
22000;BME280;11164;48.818;2.322;2022-07-29T11:53:03;100686.28;;;28.54;20.27
22000;BME280;11164;48.818;2.322;2022-07-29T11:55:29;100664.75;;;28.91;20.23
22000;BME280;11164;48.818;2.322;2022-07-29T11:57:59;100683.78;;;29.15;19.63
22000;BME280;11164;48.818;2.322;2022-07-29T12:00:31;100675.13;;;29.17;19.53
22000;BME280;11164;48.818;2.322;2022-07-29T12:02:59;100694.97;;;29.01;20.15
22000;BME280;11164;48.818;2.322;2022-07-29T12:08:11;100669.69;;;29.03;19.54
22000;BME280;11164;48.818;2.322;2022-07-29T12:10:38;100670.16;;;29.05;19.82
22000;BME280;11164;48.818;2.322;2022-07-29T12:13:04;100669.59;;;29.26;19.89
22000;BME280;11164;48.818;2.322;2022-07-29T12:15:29;100670.84;;;29.11;19.95
22000;BME280;11164;48.818;2.322;2022-07-29T12:17:55;100683.69;;;28.98;19.65
22000;BME280;11164;48.818;2.322;2022-07-29T12:20:27;100680.59;;;28.99;19.87
22000;BME280;11164;48.818;2.322;2022-07-29T12:22:54;100686.78;;;28.96;20.08
22000;BME280;11164;48.818;2.322;2022-07-29T12:25:20;100680.94;;;29.07;20.04
22000;BME280;11164;48.818;2.322;2022-07-29T12:27:47;100669.78;;;29.38;19.33
22000;BME280;11164;48.818;2.322;2022-07-29T12:30:15;100678.81;;;29.79;19.42
22000;BME280;11164;48.818;2.322;2022-07-29T12:32:46;100669.78;;;29.99;18.64
22000;BME280;11164;48.818;2.322;2022-07-29T12:35:17;100673.22;;;30.13;18.68
22000;BME280;11164;48.818;2.322;2022-07-29T12:37:45;100669.13;;;30.20;18.80
22000;BME280;11164;48.818;2.322;2022-07-29T12:40:14;100672.88;;;29.63;19.49
22000;BME280;11164;48.818;2.322;2022-07-29T12:42:41;100660.81;;;29.67;19.04
22000;BME280;11164;48.818;2.322;2022-07-29T12:45:06;100673.44;;;29.82;18.82
22000;BME280;11164;48.818;2.322;2022-07-29T12:47:33;100660.94;;;29.18;19.71
22000;BME280;11164;48.818;2.322;2022-07-29T12:50:12;100677.94;;;30.13;17.92
22000;BME280;11164;48.818;2.322;2022-07-29T12:52:43;100667.50;;;31.04;17.61
22000;BME280;11164;48.818;2.322;2022-07-29T12:55:09;100670.84;;;31.91;17.16
22000;BME280;11164;48.818;2.322;2022-07-29T12:57:48;100677.03;;;32.42;15.32
22000;BME280;11164;48.818;2.322;2022-07-29T13:00:22;100669.63;;;31.79;15.91
22000;BME280;11164;48.818;2.322;2022-07-29T13:02:55;100665.88;;;31.03;17.80
22000;BME280;11164;48.818;2.322;2022-07-29T13:05:21;100674.13;;;30.91;17.88
22000;BME280;11164;48.818;2.322;2022-07-29T13:07:47;100665.56;;;30.96;17.94
22000;BME280;11164;48.818;2.322;2022-07-29T13:10:21;100671.97;;;30.97;17.61
22000;BME280;11164;48.818;2.322;2022-07-29T13:13:07;100677.25;;;31.19;16.60
22000;BME280;11164;48.818;2.322;2022-07-29T13:15:35;100657.06;;;31.31;17.49
22000;BME280;11164;48.818;2.322;2022-07-29T13:18:00;100667.91;;;31.15;18.03
22000;BME280;11164;48.818;2.322;2022-07-29T13:20:28;100666.31;;;30.84;17.96
22000;BME280;11164;48.818;2.322;2022-07-29T13:22:58;100670.41;;;31.38;17.61
22000;BME280;11164;48.818;2.322;2022-07-29T13:25:31;100673.66;;;32.03;17.07
22000;BME280;11164;48.818;2.322;2022-07-29T13:27:58;100679.41;;;31.64;17.54
22000;BME280;11164;48.818;2.322;2022-07-29T13:30:24;100667.78;;;31.62;17.44
22000;BME280;11164;48.818;2.322;2022-07-29T13:32:51;100668.56;;;31.72;17.40
22000;BME280;11164;48.818;2.322;2022-07-29T13:35:16;100662.28;;;32.08;17.24
22000;BME280;11164;48.818;2.322;2022-07-29T13:37:42;100668.41;;;31.89;17.28
22000;BME280;11164;48.818;2.322;2022-07-29T13:40:09;100663.00;;;32.17;17.00
22000;BME280;11164;48.818;2.322;2022-07-29T13:42:35;100659.94;;;32.31;16.78
22000;BME280;11164;48.818;2.322;2022-07-29T13:45:03;100671.84;;;31.86;17.20